サンサルバドル の空港の天気 - METARとTAF

エルサルバドル国際空港 ( MSLP / SAL ) - エルサルバドル サンサルバドル
飛行場実況気象(Metar)
観測時間02/20 19:39 CST (02/21 01:39 UTC)
風向・風速西南西 1m/s
視程10km以上
天気現象
少しの雲 雲底高度 1220m
気温24℃
湿度89%
気圧1010hPa
METARMSLP 210139Z 25001KT 9999 FEW040 24/22 Q1010 NOSIG RMK HZ
過去の天気等 Google飛行場航空写真 Wunderground天気予報

過去48時間のMETAR

飛行場予報(TAF)
発表時間: 2/20 15:25 CST (2/20 21:25 UTC)
予報対象時間: 20日18時 CST ~ 21日18時 CST
風向・風速西北西 3m/s
視程10km以上
少しの雲 雲底高度 1430m
20日21時 CST から
風向・風速東北東 2m/s
視程10km以上
なし
21日12時 CST から
風向・風速南南西 4m/s
視程10km以上
全天の4割程度の雲 雲底高度 1130m
TAF MSLP 202125Z 2100/2124 300005KT 9999 FEW047 TX31/2118Z TN23/2110Z
FM210300 06004KT CAVOK
FM211800 20008KT 9999 SCT037